Warner, Virginia
Current Conditions -  °F | °C
As of 4:55 AM on Friday 19 Dec 2014 (Local Time) from KW75 Reporting Station
Broken Clouds Broken Clouds  
Wind Chill: 30°   Ceiling: 11000
Heat Index: 35°   Visibility: 10mi
Dew Point: 25°   Wind: 6mph
Humidity: 66%   Direction: 340°NNW
Pressure: 30.11"   Gusts: NA
Location:  37.6507°N, 76.6196°W
Report Text: KW75 190955Z AUTO 34005KT 10SM BKN110 02/M04 A3011 RMK AO1 T00161041
Loading
Personal Weather Stations






























Interactive Weather Map New forecast layout! Learn more

10-Day Weather Forecast

Advertisements
Track Severe Weather on mobile